Time;durP1;ratioP1;P1;durP2;ratioP2;P2;SDS_P1;SDS_P2;PMS_P1;PMS_P2;Temp;Humidity;BMP_temperature;BMP_pressure;BME280_temperature;BME280_humidity;BME280_pressure;Samples;Min_cycle;Max_cycle;Signal;HPM_P1;HPM_P2
2021/12/31 00:00:13;;;;;;;13.73;3.63;;;;;;;;;;5049868;28;20040;-89
2021/12/31 00:02:39;;;;;;;15.35;3.60;;;;;;;;;;5057481;28;20041;-87
2021/12/31 00:05:06;;;;;;;10.98;3.60;;;;;;;;;;5039495;28;20386;-89
2021/12/31 00:07:33;;;;;;;12.50;3.95;;;;;;;;;;5043186;28;20040;-89
2021/12/31 00:10:01;;;;;;;14.38;3.55;;;;;;;;;;5064343;28;20064;-90
2021/12/31 00:12:28;;;;;;;13.38;3.88;;;;;;;;;;5051574;28;20041;-91
2021/12/31 00:14:55;;;;;;;13.68;4.10;;;;;;;;;;5024407;28;20100;-89
2021/12/31 00:17:21;;;;;;;13.68;3.95;;;;;;;;;;5060629;28;20036;-87
2021/12/31 00:19:48;;;;;;;14.68;3.55;;;;;;;;;;5053862;28;20506;-87
2021/12/31 00:24:53;;;;;;;11.25;4.10;;;;;;;;;;5061479;28;20041;-87
2021/12/31 00:27:19;;;;;;;15.13;4.10;;;;;;;;;;5049495;28;20029;-89
2021/12/31 00:29:45;;;;;;;12.65;3.50;;;;;;;;;;5040061;28;20651;-89
2021/12/31 00:32:12;;;;;;;13.68;3.58;;;;;;;;;;5054632;28;20047;-89
2021/12/31 00:34:38;;;;;;;17.27;4.22;;;;;;;;;;5037246;28;20053;-90
2021/12/31 00:37:08;;;;;;;12.05;3.22;;;;;;;;;;5049253;28;20077;-88
2021/12/31 00:39:34;;;;;;;13.05;3.38;;;;;;;;;;5049427;28;20040;-88
2021/12/31 00:42:00;;;;;;;11.48;3.45;;;;;;;;;;5034098;28;20060;-89
2021/12/31 00:44:28;;;;;;;14.90;3.72;;;;;;;;;;5040641;28;20036;-90
2021/12/31 00:46:54;;;;;;;13.70;3.80;;;;;;;;;;5054080;28;20037;-89
2021/12/31 00:49:20;;;;;;;13.38;3.85;;;;;;;;;;5037961;28;20036;-90
2021/12/31 00:51:46;;;;;;;14.25;3.75;;;;;;;;;;5065528;28;20036;-90
2021/12/31 00:54:12;;;;;;;14.18;4.47;;;;;;;;;;5042071;28;20049;-89
2021/12/31 00:56:39;;;;;;;14.60;4.07;;;;;;;;;;5059884;28;20041;-89
2021/12/31 00:59:05;;;;;;;15.63;3.67;;;;;;;;;;5055984;28;20400;-88
2021/12/31 01:01:32;;;;;;;11.93;3.72;;;;;;;;;;5051475;28;20071;-92
2021/12/31 01:03:58;;;;;;;17.17;3.95;;;;;;;;;;5052227;28;20040;-87
2021/12/31 01:06:24;;;;;;;14.52;3.92;;;;;;;;;;5056559;28;20082;-89
2021/12/31 01:08:50;;;;;;;11.63;4.47;;;;;;;;;;5055917;28;20037;-89
2021/12/31 01:11:16;;;;;;;13.13;4.05;;;;;;;;;;5052468;28;20033;-90
2021/12/31 01:14:02;;;;;;;18.08;4.90;;;;;;;;;;5058954;28;20504;-89
2021/12/31 01:16:35;;;;;;;17.17;4.35;;;;;;;;;;5054471;28;20515;-87
2021/12/31 01:21:27;;;;;;;17.10;4.88;;;;;;;;;;5049832;28;20404;-89
2021/12/31 01:23:57;;;;;;;14.73;4.45;;;;;;;;;;5042817;28;20134;-90
2021/12/31 01:26:24;;;;;;;17.77;5.68;;;;;;;;;;5049956;28;20045;-90
2021/12/31 01:28:50;;;;;;;15.85;4.55;;;;;;;;;;5033582;28;20068;-89
2021/12/31 01:31:17;;;;;;;15.02;4.78;;;;;;;;;;5049599;28;20044;-88
2021/12/31 01:33:43;;;;;;;15.88;4.95;;;;;;;;;;5056943;28;20100;-90
2021/12/31 01:36:09;;;;;;;17.65;4.97;;;;;;;;;;5058857;28;20053;-89
2021/12/31 01:38:36;;;;;;;17.73;4.63;;;;;;;;;;5064803;28;20040;-88
2021/12/31 01:41:02;;;;;;;19.67;5.10;;;;;;;;;;5051654;28;20495;-88
2021/12/31 01:43:28;;;;;;;14.35;4.32;;;;;;;;;;5061592;28;20087;-89
2021/12/31 01:45:59;;;;;;;14.65;4.65;;;;;;;;;;5047304;28;20068;-89
2021/12/31 01:48:35;;;;;;;15.80;4.70;;;;;;;;;;5073788;28;20115;-90
2021/12/31 01:51:04;;;;;;;15.65;4.40;;;;;;;;;;5053469;28;20040;-90
2021/12/31 01:53:32;;;;;;;16.15;4.95;;;;;;;;;;5054790;28;20495;-88
2021/12/31 01:56:00;;;;;;;13.82;4.45;;;;;;;;;;5050484;28;20239;-91
2021/12/31 01:58:27;;;;;;;15.63;4.68;;;;;;;;;;5062436;28;20044;-89
2021/12/31 02:00:54;;;;;;;12.25;4.55;;;;;;;;;;5066573;28;20044;-89
2021/12/31 02:03:20;;;;;;;15.35;4.97;;;;;;;;;;5063926;28;20052;-90
2021/12/31 02:05:47;;;;;;;14.73;5.25;;;;;;;;;;5058497;28;20037;-90
2021/12/31 02:08:13;;;;;;;17.20;5.40;;;;;;;;;;5068718;28;20044;-88
2021/12/31 02:10:39;;;;;;;16.48;4.68;;;;;;;;;;5044963;28;20040;-91
2021/12/31 02:13:07;;;;;;;18.48;4.88;;;;;;;;;;5063766;28;20217;-89
2021/12/31 02:15:33;;;;;;;15.48;4.40;;;;;;;;;;5063650;28;20051;-91
2021/12/31 02:18:01;;;;;;;13.75;4.30;;;;;;;;;;5055133;28;20041;-88
2021/12/31 02:20:44;;;;;;;15.85;4.47;;;;;;;;;;5051322;28;20076;-88
2021/12/31 02:23:17;;;;;;;13.63;4.05;;;;;;;;;;5034638;28;20080;-88
2021/12/31 02:25:43;;;;;;;11.80;4.30;;;;;;;;;;5066887;28;20479;-88
2021/12/31 02:28:09;;;;;;;14.82;4.57;;;;;;;;;;5071519;28;20040;-87
2021/12/31 02:30:36;;;;;;;14.80;4.47;;;;;;;;;;5060941;28;20480;-88
2021/12/31 02:33:03;;;;;;;15.82;4.25;;;;;;;;;;5049844;28;20047;-90
2021/12/31 02:35:30;;;;;;;13.93;4.90;;;;;;;;;;5056722;28;20044;-89
2021/12/31 02:37:56;;;;;;;11.63;4.72;;;;;;;;;;5062969;28;20154;-89
2021/12/31 02:40:24;;;;;;;15.05;4.63;;;;;;;;;;5040296;28;20045;-89
2021/12/31 02:42:50;;;;;;;12.23;4.22;;;;;;;;;;5070468;28;20136;-89
2021/12/31 02:45:16;;;;;;;13.50;5.47;;;;;;;;;;5064982;28;20403;-88
2021/12/31 02:47:45;;;;;;;13.15;4.60;;;;;;;;;;5054811;28;20511;-88
2021/12/31 02:50:19;;;;;;;14.32;5.18;;;;;;;;;;5058191;28;20480;-89
2021/12/31 02:52:46;;;;;;;12.10;4.65;;;;;;;;;;5056774;28;20049;-88
2021/12/31 02:55:13;;;;;;;13.73;4.45;;;;;;;;;;5034716;28;20062;-88
2021/12/31 02:57:39;;;;;;;20.15;5.53;;;;;;;;;;5036574;28;20041;-89
2021/12/31 03:00:07;;;;;;;15.43;4.20;;;;;;;;;;5064760;28;20516;-89
2021/12/31 03:02:36;;;;;;;13.80;4.38;;;;;;;;;;5054923;28;20044;-89
2021/12/31 03:05:02;;;;;;;13.00;4.13;;;;;;;;;;5040551;28;20033;-88
2021/12/31 03:07:30;;;;;;;19.27;4.43;;;;;;;;;;5060271;28;20045;-88
2021/12/31 03:09:56;;;;;;;12.75;4.72;;;;;;;;;;5071434;28;20036;-91
2021/12/31 03:12:23;;;;;;;11.25;4.53;;;;;;;;;;5051383;28;20045;-90
2021/12/31 03:14:49;;;;;;;10.40;4.65;;;;;;;;;;5066178;28;20079;-90
2021/12/31 03:17:16;;;;;;;9.15;4.18;;;;;;;;;;5068529;28;20128;-88
2021/12/31 03:19:45;;;;;;;10.88;4.20;;;;;;;;;;5050404;28;20041;-88
2021/12/31 03:22:11;;;;;;;10.73;4.47;;;;;;;;;;5044874;28;20166;-89
2021/12/31 03:24:39;;;;;;;7.90;3.88;;;;;;;;;;5057108;28;20033;-90
2021/12/31 03:27:05;;;;;;;10.95;4.50;;;;;;;;;;5052614;28;20033;-91
2021/12/31 03:29:31;;;;;;;10.25;4.13;;;;;;;;;;5061240;28;20047;-91
2021/12/31 03:31:58;;;;;;;10.27;4.25;;;;;;;;;;5041607;28;20072;-86
2021/12/31 03:34:24;;;;;;;10.68;4.25;;;;;;;;;;5050791;28;20467;-89
2021/12/31 03:36:50;;;;;;;13.35;4.65;;;;;;;;;;5057363;28;20495;-91
2021/12/31 03:39:16;;;;;;;8.70;4.30;;;;;;;;;;5055961;28;20043;-89
2021/12/31 03:41:45;;;;;;;12.35;4.35;;;;;;;;;;5060395;28;20057;-90
2021/12/31 03:44:11;;;;;;;8.38;3.40;;;;;;;;;;5046727;28;20055;-89
2021/12/31 03:46:37;;;;;;;10.05;3.97;;;;;;;;;;5062540;28;20549;-87
2021/12/31 03:49:04;;;;;;;9.25;3.53;;;;;;;;;;5059881;28;20404;-87
2021/12/31 03:51:30;;;;;;;11.68;4.07;;;;;;;;;;5040242;28;20032;-87
2021/12/31 03:53:56;;;;;;;9.88;3.50;;;;;;;;;;5050003;28;20132;-88
2021/12/31 03:56:25;;;;;;;8.82;3.67;;;;;;;;;;5059810;28;20066;-88
2021/12/31 03:58:51;;;;;;;10.20;3.80;;;;;;;;;;5053725;28;20074;-90
2021/12/31 04:01:17;;;;;;;9.45;3.45;;;;;;;;;;5058145;28;20517;-89
2021/12/31 04:03:43;;;;;;;7.45;3.58;;;;;;;;;;5060570;28;20434;-89
2021/12/31 04:06:09;;;;;;;12.32;3.58;;;;;;;;;;5054265;28;20052;-87
2021/12/31 04:08:36;;;;;;;9.98;3.33;;;;;;;;;;5059056;28;20036;-90
2021/12/31 04:11:02;;;;;;;7.95;3.72;;;;;;;;;;5035566;28;20068;-88
2021/12/31 04:13:28;;;;;;;9.48;3.25;;;;;;;;;;5044464;28;20457;-90
2021/12/31 04:15:54;;;;;;;11.13;3.10;;;;;;;;;;5044221;28;20051;-89
2021/12/31 04:18:20;;;;;;;7.43;3.00;;;;;;;;;;5056512;28;20049;-88
2021/12/31 04:20:48;;;;;;;10.88;3.33;;;;;;;;;;5039053;28;20044;-91
2021/12/31 04:23:26;;;;;;;10.60;3.47;;;;;;;;;;5055156;28;20048;-88
2021/12/31 04:25:52;;;;;;;10.70;3.42;;;;;;;;;;5065379;28;20045;-88
2021/12/31 04:28:19;;;;;;;9.52;3.55;;;;;;;;;;5049100;28;20033;-88
2021/12/31 04:30:45;;;;;;;9.25;3.35;;;;;;;;;;5058291;28;20047;-89
2021/12/31 04:33:11;;;;;;;8.85;3.60;;;;;;;;;;5057565;28;20131;-88
2021/12/31 04:35:37;;;;;;;10.68;3.10;;;;;;;;;;5065344;28;20093;-89
2021/12/31 04:38:03;;;;;;;9.55;3.25;;;;;;;;;;5049539;28;20076;-87
2021/12/31 04:40:29;;;;;;;8.38;3.22;;;;;;;;;;5057564;28;20055;-89
2021/12/31 04:42:56;;;;;;;8.73;3.15;;;;;;;;;;5069356;28;20052;-88
2021/12/31 04:45:23;;;;;;;10.50;3.10;;;;;;;;;;5054464;28;20504;-87
2021/12/31 04:47:49;;;;;;;8.68;3.08;;;;;;;;;;5065163;28;20040;-89
2021/12/31 04:50:15;;;;;;;7.88;3.25;;;;;;;;;;5056580;28;20038;-90
2021/12/31 04:52:41;;;;;;;7.78;2.92;;;;;;;;;;5053487;28;20037;-90
2021/12/31 04:55:08;;;;;;;9.98;4.03;;;;;;;;;;5055104;28;20048;-89
2021/12/31 04:57:34;;;;;;;7.10;3.05;;;;;;;;;;5055586;28;20059;-91
2021/12/31 05:00:00;;;;;;;8.68;3.40;;;;;;;;;;5055493;28;20063;-90
2021/12/31 05:02:26;;;;;;;9.32;3.58;;;;;;;;;;5043532;28;20052;-88
2021/12/31 05:04:53;;;;;;;8.35;3.80;;;;;;;;;;5046608;28;20067;-89
2021/12/31 05:07:19;;;;;;;9.27;3.70;;;;;;;;;;5042012;28;20416;-90
2021/12/31 05:09:45;;;;;;;12.50;4.22;;;;;;;;;;5063608;28;20045;-89
2021/12/31 05:12:15;;;;;;;9.82;4.95;;;;;;;;;;5038310;28;20044;-89
2021/12/31 05:14:45;;;;;;;10.23;4.95;;;;;;;;;;5046949;28;20037;-90
2021/12/31 05:17:11;;;;;;;10.90;5.30;;;;;;;;;;5039988;28;20033;-88
2021/12/31 05:19:37;;;;;;;11.73;5.97;;;;;;;;;;5062424;28;20127;-89
2021/12/31 05:22:04;;;;;;;11.20;6.40;;;;;;;;;;5070872;28;20047;-90
2021/12/31 05:24:30;;;;;;;11.63;6.65;;;;;;;;;;5060140;28;20051;-85
2021/12/31 05:26:56;;;;;;;11.85;5.95;;;;;;;;;;5043612;28;20041;-89
2021/12/31 05:29:22;;;;;;;11.90;6.03;;;;;;;;;;5058125;28;20653;-87
2021/12/31 05:31:48;;;;;;;10.98;5.93;;;;;;;;;;5061657;28;20079;-90
2021/12/31 05:34:14;;;;;;;11.18;5.70;;;;;;;;;;5061380;28;20032;-90
2021/12/31 05:36:41;;;;;;;9.70;5.40;;;;;;;;;;5069146;28;20032;-90
2021/12/31 05:39:07;;;;;;;11.95;5.88;;;;;;;;;;5056721;28;20059;-88
2021/12/31 05:41:34;;;;;;;10.60;4.97;;;;;;;;;;5047236;28;20041;-87
2021/12/31 05:44:00;;;;;;;10.57;5.35;;;;;;;;;;5050011;28;20041;-87
2021/12/31 05:46:26;;;;;;;12.25;5.03;;;;;;;;;;5040053;28;20052;-86
2021/12/31 05:48:52;;;;;;;10.57;4.68;;;;;;;;;;5061774;28;20082;-87
2021/12/31 05:51:18;;;;;;;7.90;4.60;;;;;;;;;;5066099;28;20091;-88
2021/12/31 05:53:45;;;;;;;9.70;5.15;;;;;;;;;;5047003;28;20036;-88
2021/12/31 05:56:11;;;;;;;11.13;4.90;;;;;;;;;;5057494;28;20087;-88
2021/12/31 05:58:37;;;;;;;11.27;5.05;;;;;;;;;;5054351;28;20045;-89
2021/12/31 06:01:03;;;;;;;10.88;4.57;;;;;;;;;;5061832;28;20052;-90
2021/12/31 06:03:29;;;;;;;8.77;4.70;;;;;;;;;;5044296;28;20100;-89
2021/12/31 06:05:55;;;;;;;9.98;4.80;;;;;;;;;;5058890;28;20041;-87
2021/12/31 06:08:22;;;;;;;9.70;4.57;;;;;;;;;;5053425;28;20033;-89
2021/12/31 06:10:48;;;;;;;9.63;4.35;;;;;;;;;;5054259;28;20083;-90
2021/12/31 06:13:14;;;;;;;10.88;3.97;;;;;;;;;;5052404;28;20053;-88
2021/12/31 06:15:45;;;;;;;9.38;4.30;;;;;;;;;;5058308;28;20087;-89
2021/12/31 06:18:11;;;;;;;8.98;4.00;;;;;;;;;;5070162;28;20085;-89
2021/12/31 06:20:43;;;;;;;8.77;4.15;;;;;;;;;;5068165;28;20120;-91
2021/12/31 06:23:10;;;;;;;8.00;3.72;;;;;;;;;;5055370;28;20102;-91
2021/12/31 06:25:36;;;;;;;8.75;3.95;;;;;;;;;;5063564;28;20065;-89
2021/12/31 06:28:02;;;;;;;7.35;3.63;;;;;;;;;;5052887;28;20033;-86
2021/12/31 06:30:28;;;;;;;8.73;3.58;;;;;;;;;;5040869;28;20639;-87
2021/12/31 06:32:54;;;;;;;8.27;3.78;;;;;;;;;;5058805;28;20400;-89
2021/12/31 06:35:21;;;;;;;7.05;3.70;;;;;;;;;;5053713;28;20076;-88
2021/12/31 06:37:52;;;;;;;7.07;3.67;;;;;;;;;;5060150;28;20033;-86
2021/12/31 06:40:19;;;;;;;6.50;3.50;;;;;;;;;;5073934;28;20056;-89
2021/12/31 06:42:45;;;;;;;7.82;3.58;;;;;;;;;;5051303;28;20053;-88
2021/12/31 06:45:11;;;;;;;7.68;3.38;;;;;;;;;;5065337;28;20047;-88
2021/12/31 06:47:37;;;;;;;6.70;3.45;;;;;;;;;;5063078;28;20037;-89
2021/12/31 06:50:04;;;;;;;6.63;3.17;;;;;;;;;;5050343;28;20045;-90
2021/12/31 06:52:31;;;;;;;9.05;3.47;;;;;;;;;;5054331;28;20037;-90
2021/12/31 06:54:57;;;;;;;8.90;3.15;;;;;;;;;;5059517;28;20493;-90
2021/12/31 06:57:24;;;;;;;7.70;3.65;;;;;;;;;;5068725;28;20041;-87
2021/12/31 06:59:50;;;;;;;10.10;3.58;;;;;;;;;;5062525;28;20041;-90
2021/12/31 07:02:16;;;;;;;8.38;3.22;;;;;;;;;;5060879;28;20090;-90
2021/12/31 07:04:42;;;;;;;7.55;3.20;;;;;;;;;;5042665;28;20037;-88
2021/12/31 07:07:09;;;;;;;6.18;2.72;;;;;;;;;;5058020;28;20349;-90
2021/12/31 07:09:35;;;;;;;5.90;3.17;;;;;;;;;;5052521;28;20071;-89
2021/12/31 07:12:01;;;;;;;5.95;2.85;;;;;;;;;;5057828;28;20090;-89
2021/12/31 07:14:28;;;;;;;9.18;3.30;;;;;;;;;;5035796;28;20033;-91
2021/12/31 07:16:54;;;;;;;7.05;3.33;;;;;;;;;;5051398;28;20408;-88
2021/12/31 07:19:20;;;;;;;7.72;3.33;;;;;;;;;;5070505;28;20047;-89
2021/12/31 07:21:46;;;;;;;7.05;3.42;;;;;;;;;;5038358;28;20496;-88
2021/12/31 07:24:12;;;;;;;7.07;3.03;;;;;;;;;;5051853;28;20052;-89
2021/12/31 07:26:38;;;;;;;8.13;3.25;;;;;;;;;;5066625;28;20395;-90
2021/12/31 07:29:05;;;;;;;9.30;3.50;;;;;;;;;;5042416;28;20190;-90
2021/12/31 07:31:31;;;;;;;9.25;3.45;;;;;;;;;;5035090;28;20040;-85
2021/12/31 07:33:57;;;;;;;8.38;3.17;;;;;;;;;;5060494;28;20115;-88
2021/12/31 07:36:25;;;;;;;8.13;3.33;;;;;;;;;;5038950;28;20057;-87
2021/12/31 07:38:59;;;;;;;5.43;3.13;;;;;;;;;;5052027;28;20053;-89
2021/12/31 07:41:26;;;;;;;8.32;3.92;;;;;;;;;;5059971;28;20392;-89
2021/12/31 07:43:52;;;;;;;10.32;4.07;;;;;;;;;;5054169;28;20065;-88
2021/12/31 07:46:18;;;;;;;9.57;3.63;;;;;;;;;;5043355;28;20037;-88
2021/12/31 07:48:44;;;;;;;9.75;3.50;;;;;;;;;;5036884;28;20039;-87
2021/12/31 07:51:11;;;;;;;8.60;3.58;;;;;;;;;;5049695;28;20481;-88
2021/12/31 07:53:37;;;;;;;7.50;3.30;;;;;;;;;;5061389;28;20135;-90
2021/12/31 07:56:03;;;;;;;8.93;3.97;;;;;;;;;;5049904;28;20060;-89
2021/12/31 07:58:30;;;;;;;7.60;3.22;;;;;;;;;;5035580;28;20648;-89
2021/12/31 08:00:56;;;;;;;8.23;3.63;;;;;;;;;;5043841;28;20033;-90
2021/12/31 08:03:22;;;;;;;8.65;3.58;;;;;;;;;;5054705;28;20040;-89
2021/12/31 08:05:48;;;;;;;8.20;3.65;;;;;;;;;;5042913;28;20040;-90
2021/12/31 08:08:15;;;;;;;7.40;3.72;;;;;;;;;;5056535;28;20453;-88
2021/12/31 08:10:41;;;;;;;8.30;4.20;;;;;;;;;;5054198;28;20235;-91
2021/12/31 08:13:07;;;;;;;7.30;3.60;;;;;;;;;;5052578;28;20083;-88
2021/12/31 08:15:33;;;;;;;8.70;3.90;;;;;;;;;;5053681;28;20048;-88
2021/12/31 08:18:00;;;;;;;8.27;4.22;;;;;;;;;;5043877;28;20037;-87
2021/12/31 08:20:26;;;;;;;9.05;4.13;;;;;;;;;;5053055;28;20496;-91
2021/12/31 08:22:53;;;;;;;10.23;3.88;;;;;;;;;;5043819;28;20041;-88
2021/12/31 08:25:19;;;;;;;8.50;3.75;;;;;;;;;;5059542;28;20037;-89
2021/12/31 08:27:45;;;;;;;10.05;3.97;;;;;;;;;;5047153;28;20041;-89
2021/12/31 08:30:12;;;;;;;7.50;3.72;;;;;;;;;;5059741;28;20045;-87
2021/12/31 08:32:38;;;;;;;9.65;3.53;;;;;;;;;;5056383;28;20045;-88
2021/12/31 08:35:05;;;;;;;7.43;3.80;;;;;;;;;;5055652;28;20037;-88
2021/12/31 08:37:32;;;;;;;6.85;3.65;;;;;;;;;;5053245;28;20324;-87
2021/12/31 08:39:58;;;;;;;9.05;3.47;;;;;;;;;;5056153;28;20149;-90
2021/12/31 08:42:25;;;;;;;6.78;3.40;;;;;;;;;;5043511;28;20061;-90
2021/12/31 08:44:51;;;;;;;8.18;3.80;;;;;;;;;;5054691;28;20100;-90
2021/12/31 08:47:18;;;;;;;7.72;3.67;;;;;;;;;;5040314;28;20048;-90
2021/12/31 08:49:44;;;;;;;8.43;3.70;;;;;;;;;;5037977;28;20037;-87
2021/12/31 08:52:10;;;;;;;11.48;4.90;;;;;;;;;;5056946;28;20264;-89
2021/12/31 08:54:37;;;;;;;10.57;4.35;;;;;;;;;;5061849;28;20029;-88
2021/12/31 08:57:03;;;;;;;7.78;4.10;;;;;;;;;;5055424;28;20051;-88
2021/12/31 08:59:30;;;;;;;8.57;4.22;;;;;;;;;;5059016;28;20040;-89
2021/12/31 09:01:56;;;;;;;7.35;4.15;;;;;;;;;;5050717;28;20040;-89
2021/12/31 09:04:22;;;;;;;8.63;4.35;;;;;;;;;;5053315;28;20187;-88
2021/12/31 09:06:48;;;;;;;8.35;4.38;;;;;;;;;;5040715;28;20029;-91
2021/12/31 09:09:20;;;;;;;7.45;5.00;;;;;;;;;;5058082;28;20348;-88
2021/12/31 09:11:46;;;;;;;8.60;4.80;;;;;;;;;;5032051;28;20123;-89
2021/12/31 09:14:13;;;;;;;10.32;4.80;;;;;;;;;;5051341;28;20037;-89
2021/12/31 09:16:39;;;;;;;8.63;4.88;;;;;;;;;;5054220;28;20107;-89
2021/12/31 09:19:05;;;;;;;10.88;5.53;;;;;;;;;;5049279;28;20284;-88
2021/12/31 09:21:32;;;;;;;7.63;4.72;;;;;;;;;;5052996;28;20054;-89
2021/12/31 09:23:58;;;;;;;8.35;5.05;;;;;;;;;;5054422;28;20037;-86
2021/12/31 09:26:24;;;;;;;9.95;4.63;;;;;;;;;;5042687;28;20524;-91
2021/12/31 09:28:50;;;;;;;8.45;4.75;;;;;;;;;;5059559;28;20492;-88
2021/12/31 09:31:16;;;;;;;10.35;5.05;;;;;;;;;;5055562;28;20491;-89
2021/12/31 09:33:42;;;;;;;7.25;4.22;;;;;;;;;;5062141;28;20558;-86
2021/12/31 09:36:14;;;;;;;8.40;4.32;;;;;;;;;;5053259;28;20419;-91
2021/12/31 09:38:41;;;;;;;7.78;3.83;;;;;;;;;;5048859;28;20175;-89
2021/12/31 09:41:07;;;;;;;7.97;4.32;;;;;;;;;;5050688;28;20040;-89
2021/12/31 09:43:33;;;;;;;8.13;3.95;;;;;;;;;;5044838;28;20088;-89
2021/12/31 09:45:59;;;;;;;8.73;3.70;;;;;;;;;;5041010;28;20531;-89
2021/12/31 09:48:25;;;;;;;10.60;3.90;;;;;;;;;;5069145;28;20037;-89
2021/12/31 09:50:54;;;;;;;7.13;3.95;;;;;;;;;;5070900;28;20507;-88
2021/12/31 09:53:20;;;;;;;7.90;3.60;;;;;;;;;;5071211;28;20519;-88
2021/12/31 09:55:48;;;;;;;7.47;3.67;;;;;;;;;;5053280;28;20119;-89
2021/12/31 09:58:16;;;;;;;7.90;3.83;;;;;;;;;;5051355;28;20044;-86
2021/12/31 10:00:44;;;;;;;8.15;4.47;;;;;;;;;;5048565;28;20207;-89
2021/12/31 10:03:13;;;;;;;7.50;3.47;;;;;;;;;;5055785;28;20045;-86
2021/12/31 10:05:44;;;;;;;8.73;3.40;;;;;;;;;;5058232;28;20079;-89
2021/12/31 10:08:21;;;;;;;8.00;4.80;;;;;;;;;;5042434;28;20039;-90
2021/12/31 10:11:02;;;;;;;7.03;3.25;;;;;;;;;;5062510;28;20036;-89
2021/12/31 10:13:29;;;;;;;7.93;4.10;;;;;;;;;;5042919;28;20041;-88
2021/12/31 10:15:56;;;;;;;8.90;3.58;;;;;;;;;;5035027;28;20037;-90
2021/12/31 10:18:31;;;;;;;7.32;3.80;;;;;;;;;;5060866;28;20055;-88
2021/12/31 10:20:58;;;;;;;9.00;4.32;;;;;;;;;;5057568;28;20564;-88
2021/12/31 10:23:24;;;;;;;8.25;4.57;;;;;;;;;;5057838;28;20045;-88
2021/12/31 10:25:50;;;;;;;10.15;4.10;;;;;;;;;;5051109;28;20039;-87
2021/12/31 10:28:17;;;;;;;9.85;4.82;;;;;;;;;;5055347;28;20115;-88
2021/12/31 10:30:44;;;;;;;10.18;4.95;;;;;;;;;;5062396;28;20381;-90
2021/12/31 10:33:11;;;;;;;7.25;4.65;;;;;;;;;;5071844;28;20044;-86
2021/12/31 10:35:38;;;;;;;10.23;5.10;;;;;;;;;;5055786;28;20466;-87
2021/12/31 10:38:06;;;;;;;7.32;4.50;;;;;;;;;;5052102;28;20519;-91
2021/12/31 10:40:33;;;;;;;10.50;4.97;;;;;;;;;;5069189;28;20079;-89
2021/12/31 10:43:07;;;;;;;9.00;5.00;;;;;;;;;;5051590;28;20053;-89
2021/12/31 10:45:34;;;;;;;9.05;4.78;;;;;;;;;;5058617;28;20049;-88
2021/12/31 10:48:10;;;;;;;8.55;4.43;;;;;;;;;;5056609;28;20127;-91
2021/12/31 10:50:37;;;;;;;8.20;4.32;;;;;;;;;;5039077;28;20048;-91
2021/12/31 10:53:12;;;;;;;8.82;4.53;;;;;;;;;;5036689;28;20033;-91
2021/12/31 10:55:39;;;;;;;10.45;5.10;;;;;;;;;;5040094;28;20124;-91
2021/12/31 10:58:07;;;;;;;8.38;4.53;;;;;;;;;;5057542;28;20527;-90
2021/12/31 11:00:34;;;;;;;12.90;5.00;;;;;;;;;;5053656;28;20044;-89
2021/12/31 11:03:00;;;;;;;8.18;4.30;;;;;;;;;;5055022;28;20396;-86
2021/12/31 11:05:27;;;;;;;7.85;4.13;;;;;;;;;;5051820;28;20126;-88
2021/12/31 11:07:54;;;;;;;9.55;4.43;;;;;;;;;;5034136;28;20122;-90
2021/12/31 11:10:27;;;;;;;7.80;4.03;;;;;;;;;;5042725;28;20033;-90
2021/12/31 11:12:54;;;;;;;8.57;4.47;;;;;;;;;;5056826;28;20056;-90
2021/12/31 11:15:21;;;;;;;9.80;4.57;;;;;;;;;;5053838;28;20048;-90
2021/12/31 11:17:52;;;;;;;10.27;5.35;;;;;;;;;;5037309;28;20040;-90
2021/12/31 11:20:20;;;;;;;9.77;5.20;;;;;;;;;;5044318;28;20428;-91
2021/12/31 11:22:46;;;;;;;10.52;5.63;;;;;;;;;;5037250;28;20454;-87
2021/12/31 11:25:26;;;;;;;11.60;6.32;;;;;;;;;;5065509;28;20032;-90
2021/12/31 11:27:53;;;;;;;12.07;6.30;;;;;;;;;;5068166;28;20551;-93
2021/12/31 11:30:39;;;;;;;11.65;5.97;;;;;;;;;;5041119;28;20452;-87
2021/12/31 11:33:09;;;;;;;11.23;6.35;;;;;;;;;;5057350;28;20066;-90
2021/12/31 11:35:37;;;;;;;9.65;5.90;;;;;;;;;;5058180;28;20059;-90
2021/12/31 11:38:05;;;;;;;11.80;5.88;;;;;;;;;;5059772;28;20400;-93
2021/12/31 11:40:38;;;;;;;14.30;7.60;;;;;;;;;;5050954;28;20044;-89
2021/12/31 11:43:13;;;;;;;10.07;6.45;;;;;;;;;;5038042;28;20060;-91
2021/12/31 11:45:40;;;;;;;14.70;7.00;;;;;;;;;;5034812;28;20033;-91
2021/12/31 11:48:25;;;;;;;12.48;6.97;;;;;;;;;;5056517;28;20091;-89
2021/12/31 11:51:03;;;;;;;10.75;7.18;;;;;;;;;;5032860;28;20036;-89
2021/12/31 11:53:30;;;;;;;13.23;7.22;;;;;;;;;;5055486;28;20053;-86
2021/12/31 11:55:56;;;;;;;16.92;7.93;;;;;;;;;;5048828;28;20071;-87
2021/12/31 11:58:39;;;;;;;13.13;8.07;;;;;;;;;;5056718;28;20099;-86
2021/12/31 12:01:38;;;;;;;14.13;8.18;;;;;;;;;;5042801;28;20051;-87
2021/12/31 12:04:23;;;;;;;14.65;8.93;;;;;;;;;;5055851;28;20063;-86
2021/12/31 12:06:52;;;;;;;16.13;8.52;;;;;;;;;;5040758;28;20037;-90
2021/12/31 12:09:19;;;;;;;18.35;9.80;;;;;;;;;;5054480;28;20083;-87
2021/12/31 12:12:01;;;;;;;13.43;9.02;;;;;;;;;;5054619;28;20036;-86
2021/12/31 12:14:28;;;;;;;19.42;9.40;;;;;;;;;;5054603;28;20503;-86
2021/12/31 12:16:58;;;;;;;17.65;9.43;;;;;;;;;;5052851;28;20476;-87
2021/12/31 12:19:44;;;;;;;16.92;9.32;;;;;;;;;;5050831;28;20080;-88
2021/12/31 12:22:10;;;;;;;16.77;8.93;;;;;;;;;;5053053;28;20127;-87
2021/12/31 12:24:36;;;;;;;16.85;9.20;;;;;;;;;;5059378;28;20047;-89
2021/12/31 12:27:03;;;;;;;19.50;9.13;;;;;;;;;;5053826;28;20098;-86
2021/12/31 12:29:29;;;;;;;19.50;9.70;;;;;;;;;;5070947;28;20064;-89
2021/12/31 12:32:09;;;;;;;14.63;9.00;;;;;;;;;;5051487;28;20498;-89
2021/12/31 12:34:35;;;;;;;16.30;8.95;;;;;;;;;;5055109;28;20044;-87
2021/12/31 12:37:02;;;;;;;14.95;9.00;;;;;;;;;;5054843;28;20407;-89
2021/12/31 12:39:28;;;;;;;17.50;9.75;;;;;;;;;;5048447;28;20059;-92
2021/12/31 12:41:54;;;;;;;17.58;9.18;;;;;;;;;;5055147;28;20045;-91
2021/12/31 12:44:21;;;;;;;15.02;8.63;;;;;;;;;;5056298;28;20124;-88
2021/12/31 12:46:55;;;;;;;16.80;10.00;;;;;;;;;;5059166;28;20045;-88
2021/12/31 12:49:24;;;;;;;13.65;8.93;;;;;;;;;;5037116;28;20110;-88
2021/12/31 12:52:19;;;;;;;15.63;9.73;;;;;;;;;;5071115;28;20033;-87
2021/12/31 12:54:45;;;;;;;15.43;9.65;;;;;;;;;;5041441;28;20047;-91
2021/12/31 12:57:11;;;;;;;15.35;9.93;;;;;;;;;;5051497;28;20048;-88
2021/12/31 12:59:37;;;;;;;14.65;9.75;;;;;;;;;;5050518;28;20090;-86
2021/12/31 13:02:04;;;;;;;15.23;9.25;;;;;;;;;;5048724;28;20508;-87
2021/12/31 13:04:30;;;;;;;15.82;9.02;;;;;;;;;;5053627;28;20048;-86
2021/12/31 13:07:00;;;;;;;12.40;8.68;;;;;;;;;;5060587;28;20051;-87
2021/12/31 13:09:30;;;;;;;14.02;7.68;;;;;;;;;;5051846;28;20068;-87
2021/12/31 13:11:59;;;;;;;13.90;8.15;;;;;;;;;;5032432;28;20037;-89
2021/12/31 13:14:29;;;;;;;12.95;7.97;;;;;;;;;;5050525;28;20044;-89
2021/12/31 13:16:59;;;;;;;14.45;7.70;;;;;;;;;;5053184;28;20435;-87
2021/12/31 13:19:28;;;;;;;12.20;7.00;;;;;;;;;;5033364;28;20067;-87
2021/12/31 13:22:19;;;;;;;12.95;8.13;;;;;;;;;;5056495;28;20040;-88
2021/12/31 13:25:10;;;;;;;11.07;7.10;;;;;;;;;;5058126;28;20037;-86
2021/12/31 13:28:11;;;;;;;12.82;7.35;;;;;;;;;;5048022;28;20033;-88
2021/12/31 13:30:54;;;;;;;12.00;7.45;;;;;;;;;;5059475;28;20118;-91
2021/12/31 13:33:30;;;;;;;10.63;6.68;;;;;;;;;;5043123;28;20059;-93
2021/12/31 13:36:51;;;;;;;11.30;6.65;;;;;;;;;;5046845;28;20079;-89
2021/12/31 13:39:30;;;;;;;12.25;7.63;;;;;;;;;;5058874;28;20114;-88
2021/12/31 13:42:01;;;;;;;11.35;7.25;;;;;;;;;;5055405;28;20092;-88
2021/12/31 13:44:32;;;;;;;12.65;7.60;;;;;;;;;;5058710;28;20037;-88
2021/12/31 13:47:07;;;;;;;13.10;7.70;;;;;;;;;;5052019;28;20111;-89
2021/12/31 13:49:42;;;;;;;13.95;7.10;;;;;;;;;;5057780;28;20072;-89
2021/12/31 13:52:37;;;;;;;11.73;7.15;;;;;;;;;;5056950;28;20049;-89
2021/12/31 13:55:21;;;;;;;14.07;7.82;;;;;;;;;;5042046;28;20037;-91
2021/12/31 13:58:14;;;;;;;13.95;8.38;;;;;;;;;;5038866;28;20512;-89
2021/12/31 14:01:11;;;;;;;16.45;8.48;;;;;;;;;;5022365;28;20179;-88
2021/12/31 14:03:41;;;;;;;14.23;8.93;;;;;;;;;;5039342;28;20474;-89
2021/12/31 14:06:14;;;;;;;14.55;9.52;;;;;;;;;;5035528;28;20065;-85
2021/12/31 14:08:41;;;;;;;22.20;10.13;;;;;;;;;;5056813;28;20040;-88
2021/12/31 14:11:07;;;;;;;19.73;11.68;;;;;;;;;;5052987;28;20116;-88
2021/12/31 14:13:38;;;;;;;22.50;12.13;;;;;;;;;;5040964;28;20339;-87
2021/12/31 14:16:04;;;;;;;23.52;12.57;;;;;;;;;;5052640;28;20059;-87
2021/12/31 14:18:30;;;;;;;21.52;12.63;;;;;;;;;;5051380;28;20040;-87
2021/12/31 14:20:59;;;;;;;24.55;13.40;;;;;;;;;;5056345;28;20036;-89
2021/12/31 14:23:26;;;;;;;21.92;13.00;;;;;;;;;;5064514;28;20072;-87
2021/12/31 14:26:05;;;;;;;25.00;12.63;;;;;;;;;;5053870;28;20045;-88
2021/12/31 14:28:31;;;;;;;24.35;13.48;;;;;;;;;;5060760;28;20519;-85
2021/12/31 14:30:58;;;;;;;24.90;12.55;;;;;;;;;;5062566;28;20409;-86
2021/12/31 14:33:24;;;;;;;24.92;13.57;;;;;;;;;;5055139;28;20095;-86
2021/12/31 14:35:52;;;;;;;27.27;12.48;;;;;;;;;;5056389;28;20550;-85
2021/12/31 14:38:29;;;;;;;32.63;12.70;;;;;;;;;;5040517;28;20271;-87
2021/12/31 14:41:02;;;;;;;23.75;12.60;;;;;;;;;;5056418;28;20612;-85
2021/12/31 14:43:28;;;;;;;28.58;11.85;;;;;;;;;;5056494;28;20476;-85
2021/12/31 14:45:54;;;;;;;22.95;11.27;;;;;;;;;;5060011;28;20044;-90